Ecokeeper — SVTY — position and weather

sailwx.info

Track history (hours):
 
Tides and Currents Weather Stations Pressure Air Temp Water Temp Dewpoint Dewpoint Depression Visibility Wind Speed Wind Dir Waves Ship Positions

Ecokeeper

Last reported at 2016-Sep-30 02:33 UTC. Time now 2016-Sep-30 03:18 UTC.
Position N 37°57' E 023°37'.

Length 90 m; draft 4.2 m.

Type: Tanker. MMSI: 240689000.

Date/timePositionNaut miles runAvg speedWind from/ knotsBaromVisibWave heightAir tempDewpointWater temp
2016-Sep-30 02:33N 37°57' E 023°37'0 0.0
2016-Sep-29 23:34N 37°57' E 023°37'0 0.0
2016-Sep-29 21:33N 37°57' E 023°37'0 0.0
2016-Sep-29 20:33N 37°57' E 023°37'0 0.0
2016-Sep-29 19:33N 37°57' E 023°37'0 0.0
2016-Sep-29 16:34N 37°57' E 023°37'0 0.0
2016-Sep-29 15:33N 37°57' E 023°37'0 0.0
2016-Sep-29 14:33N 37°57' E 023°37'0 0.1
2016-Sep-29 13:33N 37°57' E 023°37'2 0.5
2016-Sep-29 08:34N 37°57' E 023°34'0 0.0
2016-Sep-29 07:33N 37°57' E 023°34'0 0.0
2016-Sep-27 10:03N 37°57' E 023°34'5 0.5
2016-Sep-27 00:33N 38°02' E 023°36'0 0.0
2016-Sep-26 20:33N 38°02' E 023°36'0 0.0
2016-Sep-26 19:33N 38°02' E 023°36'5 1.3
2016-Sep-26 15:33N 37°57' E 023°37'0 0.1
2016-Sep-26 13:33N 37°57' E 023°37'0 0.0
2016-Sep-26 11:34N 37°57' E 023°37'0 0.0
2016-Sep-26 08:33N 37°57' E 023°37'  
2016-Sep-23 04:09N 37°57' E 023°34'1 1.5
2016-Sep-23 03:33N 37°57' E 023°35'2 1.5
2016-Sep-23 02:33N 37°57' E 023°37'0 0.0
2016-Sep-23 01:33N 37°57' E 023°37'0 0.0
2016-Sep-23 00:33N 37°57' E 023°37'0 0.0
2016-Sep-22 23:33N 37°57' E 023°37'0 0.0
2016-Sep-22 20:33N 37°57' E 023°37'2 0.2
2016-Sep-22 12:33N 37°57' E 023°35'2 0.1
2016-Sep-21 09:33N 37°57' E 023°37'0 0.0
2016-Sep-21 08:33N 37°57' E 023°37'0 0.0
2016-Sep-21 05:33N 37°57' E 023°37'0 0.0
2016-Sep-21 03:34N 37°57' E 023°37'2 2.4
2016-Sep-21 02:33N 37°57' E 023°34'6 0.6
2016-Sep-20 17:33N 37°52' E 023°31'0 0.0
2016-Sep-20 14:33N 37°52' E 023°31'0 0.0
2016-Sep-20 13:34N 37°52' E 023°31'0 0.0
2016-Sep-20 10:33N 37°52' E 023°31'6 3.0
2016-Sep-20 08:34N 37°57' E 023°34'1 0.6
2016-Sep-20 07:33N 37°57' E 023°34'0 0.0
2016-Sep-20 06:33N 37°57' E 023°34'  
Track history (hours):
 
Tides and Currents Weather Stations Pressure Air Temp Water Temp Dewpoint Dewpoint Depression Visibility Wind Speed Wind Dir Waves Ship Positions

Ecokeeper

Last reported at 2016-Sep-30 02:33 UTC. Time now 2016-Sep-30 03:18 UTC.
Position N 37°57' E 023°37'.

Length 90 m; draft 4.2 m.

Type: Tanker. MMSI: 240689000.

Date/timePositionNaut miles runAvg speedWind from/ knotsBaromVisibWave heightAir tempDewpointWater temp
2016-Sep-30 02:33N 37°57' E 023°37'0 0.0
2016-Sep-29 23:34N 37°57' E 023°37'0 0.0
2016-Sep-29 21:33N 37°57' E 023°37'0 0.0
2016-Sep-29 20:33N 37°57' E 023°37'0 0.0
2016-Sep-29 19:33N 37°57' E 023°37'0 0.0
2016-Sep-29 16:34N 37°57' E 023°37'0 0.0
2016-Sep-29 15:33N 37°57' E 023°37'0 0.0
2016-Sep-29 14:33N 37°57' E 023°37'0 0.1
2016-Sep-29 13:33N 37°57' E 023°37'2 0.5
2016-Sep-29 08:34N 37°57' E 023°34'0 0.0
2016-Sep-29 07:33N 37°57' E 023°34'0 0.0
2016-Sep-27 10:03N 37°57' E 023°34'5 0.5
2016-Sep-27 00:33N 38°02' E 023°36'0 0.0
2016-Sep-26 20:33N 38°02' E 023°36'0 0.0
2016-Sep-26 19:33N 38°02' E 023°36'5 1.3
2016-Sep-26 15:33N 37°57' E 023°37'0 0.1
2016-Sep-26 13:33N 37°57' E 023°37'0 0.0
2016-Sep-26 11:34N 37°57' E 023°37'0 0.0
2016-Sep-26 08:33N 37°57' E 023°37'  
2016-Sep-23 04:09N 37°57' E 023°34'1 1.5
2016-Sep-23 03:33N 37°57' E 023°35'2 1.5
2016-Sep-23 02:33N 37°57' E 023°37'0 0.0
2016-Sep-23 01:33N 37°57' E 023°37'0 0.0
2016-Sep-23 00:33N 37°57' E 023°37'0 0.0
2016-Sep-22 23:33N 37°57' E 023°37'0 0.0
2016-Sep-22 20:33N 37°57' E 023°37'2 0.2
2016-Sep-22 12:33N 37°57' E 023°35'2 0.1
2016-Sep-21 09:33N 37°57' E 023°37'0 0.0
2016-Sep-21 08:33N 37°57' E 023°37'0 0.0
2016-Sep-21 05:33N 37°57' E 023°37'0 0.0
2016-Sep-21 03:34N 37°57' E 023°37'2 2.4
2016-Sep-21 02:33N 37°57' E 023°34'6 0.6
2016-Sep-20 17:33N 37°52' E 023°31'0 0.0
2016-Sep-20 14:33N 37°52' E 023°31'0 0.0
2016-Sep-20 13:34N 37°52' E 023°31'0 0.0
2016-Sep-20 10:33N 37°52' E 023°31'6 3.0
2016-Sep-20 08:34N 37°57' E 023°34'1 0.6
2016-Sep-20 07:33N 37°57' E 023°34'0 0.0
2016-Sep-20 06:33N 37°57' E 023°34'  

Dump ship's entire track history